Time;durP1;ratioP1;P1;durP2;ratioP2;P2;SDS_P1;SDS_P2;PMS_P1;PMS_P2;Temp;Humidity;BMP_temperature;BMP_pressure;BME280_temperature;BME280_humidity;BME280_pressure;Samples;Min_cycle;Max_cycle;Signal;HPM_P1;HPM_P2
2024/01/21 00:02:01;;;;;;;21.23;9.77;;;;;;;;;;5065568;28;20032;-72
2024/01/21 00:04:27;;;;;;;16.38;8.30;;;;;;;;;;5080683;28;20040;-72
2024/01/21 00:06:53;;;;;;;19.75;9.25;;;;;;;;;;5088350;28;20512;-72
2024/01/21 00:09:19;;;;;;;20.52;9.73;;;;;;;;;;5060419;28;20047;-75
2024/01/21 00:11:45;;;;;;;19.05;9.35;;;;;;;;;;5057260;28;20043;-76
2024/01/21 00:14:11;;;;;;;18.55;9.07;;;;;;;;;;5081941;28;20369;-75
2024/01/21 00:16:37;;;;;;;18.73;9.35;;;;;;;;;;5092110;28;20051;-76
2024/01/21 00:19:03;;;;;;;17.70;9.00;;;;;;;;;;5074750;28;20052;-72
2024/01/21 00:21:29;;;;;;;14.63;7.95;;;;;;;;;;5086008;28;20043;-72
2024/01/21 00:23:55;;;;;;;16.38;8.50;;;;;;;;;;5081492;28;20459;-72
2024/01/21 00:26:21;;;;;;;20.35;9.27;;;;;;;;;;5079452;28;20032;-72
2024/01/21 00:28:47;;;;;;;13.52;8.18;;;;;;;;;;5087512;28;20063;-75
2024/01/21 00:31:14;;;;;;;16.60;9.40;;;;;;;;;;5084878;28;20033;-75
2024/01/21 00:33:40;;;;;;;16.55;8.90;;;;;;;;;;5092491;28;20036;-76
2024/01/21 00:36:08;;;;;;;16.20;8.70;;;;;;;;;;5091941;28;20169;-76
2024/01/21 00:38:34;;;;;;;17.38;8.90;;;;;;;;;;5065094;28;20489;-75
2024/01/21 00:41:00;;;;;;;19.52;9.43;;;;;;;;;;5072580;28;20036;-76
2024/01/21 00:43:26;;;;;;;13.15;8.30;;;;;;;;;;5087793;28;20035;-75
2024/01/21 00:45:53;;;;;;;15.25;8.30;;;;;;;;;;5070814;28;20036;-76
2024/01/21 00:48:19;;;;;;;15.38;8.57;;;;;;;;;;5085916;28;20131;-75
2024/01/21 00:50:45;;;;;;;16.23;8.45;;;;;;;;;;5092119;28;20036;-76
2024/01/21 00:53:11;;;;;;;15.82;8.30;;;;;;;;;;5075646;28;20028;-75
2024/01/21 00:55:37;;;;;;;14.45;7.85;;;;;;;;;;5087005;28;20040;-76
2024/01/21 00:58:03;;;;;;;14.52;8.13;;;;;;;;;;5088053;28;20047;-76
2024/01/21 01:00:29;;;;;;;15.88;8.88;;;;;;;;;;5044721;28;20112;-75
2024/01/21 01:02:55;;;;;;;18.55;8.90;;;;;;;;;;5075999;28;20040;-76
2024/01/21 01:05:21;;;;;;;13.40;8.15;;;;;;;;;;5084063;28;20118;-75
2024/01/21 01:07:47;;;;;;;14.43;8.65;;;;;;;;;;5083470;28;20040;-76
2024/01/21 01:10:13;;;;;;;13.73;7.65;;;;;;;;;;5040792;28;20029;-75
2024/01/21 01:12:41;;;;;;;14.15;8.13;;;;;;;;;;5090947;28;20036;-75
2024/01/21 01:15:08;;;;;;;14.18;8.48;;;;;;;;;;5091554;28;20580;-76
2024/01/21 01:17:34;;;;;;;15.25;7.82;;;;;;;;;;5083261;28;20112;-75
2024/01/21 01:20:01;;;;;;;15.43;7.90;;;;;;;;;;5088870;28;20366;-76
2024/01/21 01:22:27;;;;;;;15.50;7.47;;;;;;;;;;5078149;28;20149;-75
2024/01/21 01:24:53;;;;;;;16.23;8.35;;;;;;;;;;5058271;28;20040;-75
2024/01/21 01:27:19;;;;;;;15.88;8.13;;;;;;;;;;5067056;28;20036;-76
2024/01/21 01:29:45;;;;;;;14.30;8.30;;;;;;;;;;5066800;28;20468;-76
2024/01/21 01:32:11;;;;;;;15.52;8.07;;;;;;;;;;5055523;28;20066;-76
2024/01/21 01:34:38;;;;;;;12.40;7.60;;;;;;;;;;5068811;28;20032;-75
2024/01/21 01:37:04;;;;;;;13.05;7.82;;;;;;;;;;5061492;28;20041;-76
2024/01/21 01:39:30;;;;;;;16.42;7.70;;;;;;;;;;5073289;28;20033;-75
2024/01/21 01:41:56;;;;;;;17.15;8.23;;;;;;;;;;5084177;28;20082;-76
2024/01/21 01:44:22;;;;;;;13.43;7.53;;;;;;;;;;5061938;28;20422;-76
2024/01/21 01:46:49;;;;;;;12.27;7.18;;;;;;;;;;5056099;28;20400;-76
2024/01/21 01:49:15;;;;;;;13.45;7.85;;;;;;;;;;5058788;28;20109;-76
2024/01/21 01:51:41;;;;;;;12.88;7.95;;;;;;;;;;5072124;28;20063;-75
2024/01/21 01:54:08;;;;;;;9.70;6.47;;;;;;;;;;5081597;28;20028;-72
2024/01/21 01:56:34;;;;;;;12.10;7.40;;;;;;;;;;5075150;28;20044;-73
2024/01/21 01:59:03;;;;;;;12.48;6.95;;;1.00;99.90;;;;;;5066367;28;20036;-72
2024/01/21 02:01:30;;;;;;;12.23;7.13;;;;;;;;;;5080307;28;20036;-72
2024/01/21 02:03:57;;;;;;;12.82;6.85;;;;;;;;;;5075690;28;20045;-73
2024/01/21 02:06:23;;;;;;;15.98;7.22;;;;;;;;;;5082628;28;20033;-72
2024/01/21 02:08:49;;;;;;;15.02;7.60;;;;;;;;;;5073298;28;20123;-72
2024/01/21 02:11:15;;;;;;;11.25;6.57;;;;;;;;;;5083794;28;20036;-73
2024/01/21 02:13:41;;;;;;;12.13;6.75;;;;;;;;;;5071973;28;20102;-72
2024/01/21 02:16:07;;;;;;;10.05;6.05;;;;;;;;;;5080461;28;20453;-72
2024/01/21 02:18:36;;;;;;;11.63;6.32;;;;;;;;;;5082857;28;20043;-72
2024/01/21 02:21:02;;;;;;;12.52;6.22;;;;;;;;;;5072572;28;20439;-72
2024/01/21 02:23:29;;;;;;;10.48;6.45;;;;;;;;;;5041713;28;20373;-73
2024/01/21 02:25:55;;;;;;;10.68;6.93;;;;;;;;;;5083249;28;20479;-72
2024/01/21 02:28:21;;;;;;;13.43;6.53;;;;;;;;;;5058892;28;20131;-72
2024/01/21 02:30:47;;;;;;;10.98;6.57;;;;;;;;;;5088500;28;20032;-72
2024/01/21 02:33:13;;;;;;;12.80;6.57;;;;;;;;;;5060280;28;20567;-73
2024/01/21 02:35:40;;;;;;;11.13;6.38;;;;;;;;;;5056743;28;20403;-73
2024/01/21 02:38:06;;;;;;;12.45;6.80;;;;;;;;;;5056460;28;20451;-72
2024/01/21 02:40:32;;;;;;;8.77;5.70;;;;;;;;;;5078809;28;20040;-73
2024/01/21 02:42:58;;;;;;;11.35;6.00;;;;;;;;;;5072888;28;20036;-73
2024/01/21 02:45:24;;;;;;;15.05;6.80;;;;;;;;;;5086122;28;20396;-73
2024/01/21 02:47:50;;;;;;;13.15;6.60;;;;;;;;;;5072056;28;20110;-72
2024/01/21 02:50:16;;;;;;;10.25;6.45;;;;;;;;;;5071976;28;20033;-73
2024/01/21 02:52:42;;;;;;;10.10;6.35;;;;;;;;;;5089555;28;20036;-73
2024/01/21 02:55:09;;;;;;;11.40;6.18;;;;;;;;;;5087477;28;20048;-72
2024/01/21 02:57:35;;;;;;;12.02;6.30;;;;;;;;;;5105670;28;20050;-73
2024/01/21 03:00:04;;;;;;;10.75;6.63;;;;;;;;;;5084594;28;20484;-72
2024/01/21 03:02:30;;;;;;;13.82;6.97;;;;;;;;;;5082966;28;20404;-73
2024/01/21 03:04:56;;;;;;;10.75;6.20;;;;;;;;;;5067546;28;20080;-73
2024/01/21 03:07:22;;;;;;;15.93;7.10;;;;;;;;;;5056480;28;20037;-72
2024/01/21 03:09:48;;;;;;;12.43;6.20;;;;;;;;;;5072686;28;20047;-73
2024/01/21 03:12:14;;;;;;;12.48;7.03;;;;;;;;;;5068742;28;20040;-72
2024/01/21 03:14:40;;;;;;;11.98;6.78;;;;;;;;;;5066803;28;20052;-72
2024/01/21 03:17:07;;;;;;;12.82;6.90;;;;;;;;;;5096256;28;20068;-73
2024/01/21 03:19:34;;;;;;;10.32;6.20;;;;;;;;;;5080244;28;20036;-73
2024/01/21 03:22:00;;;;;;;10.55;6.60;;;;;;;;;;5092299;28;20040;-73
2024/01/21 03:24:26;;;;;;;10.35;6.45;;;;;;;;;;5110407;28;20044;-73
2024/01/21 03:26:52;;;;;;;10.77;6.20;;;;;;;;;;5095312;28;20039;-74
2024/01/21 03:29:18;;;;;;;11.45;6.38;;;;;;;;;;5085189;28;20036;-73
2024/01/21 03:31:44;;;;;;;12.55;6.45;;;;;;;;;;5093261;28;20127;-72
2024/01/21 03:34:10;;;;;;;10.85;6.15;;;;;;;;;;5084046;28;20036;-72
2024/01/21 03:36:36;;;;;;;10.65;5.72;;;;;;;;;;5102892;28;20036;-72
2024/01/21 03:39:03;;;;;;;12.02;5.90;;;;;;;;;;5101755;28;20047;-72
2024/01/21 03:41:29;;;;;;;9.75;6.35;;;;;;;;;;5099849;28;20029;-72
2024/01/21 03:43:56;;;;;;;13.77;6.28;;;;;;;;;;5078530;28;20048;-73
2024/01/21 03:46:22;;;;;;;11.93;5.90;;;;;;;;;;5087944;28;20039;-76
2024/01/21 03:48:48;;;;;;;12.70;6.72;;;;;;;;;;5077057;28;20041;-76
2024/01/21 03:51:15;;;;;;;10.65;6.45;;;;;;;;;;5061148;28;20043;-76
2024/01/21 03:53:41;;;;;;;12.15;6.35;;;;;;;;;;5085535;28;20035;-76
2024/01/21 03:56:07;;;;;;;11.68;6.10;;;;;;;;;;5085012;28;20063;-76
2024/01/21 03:58:34;;;;;;;8.65;5.50;;;;;;;;;;5081003;28;20056;-76
2024/01/21 04:01:00;;;;;;;11.52;6.05;;;;;;;;;;5090788;28;20044;-76
2024/01/21 04:03:26;;;;;;;11.00;6.18;;;;;;;;;;5082997;28;20037;-76
2024/01/21 04:05:52;;;;;;;9.25;5.53;;;;;;;;;;5074767;28;20029;-76
2024/01/21 04:08:18;;;;;;;9.25;5.90;;;;;;;;;;5057720;28;20043;-76
2024/01/21 04:10:44;;;;;;;11.38;5.82;;;;;;;;;;5054452;28;20119;-76
2024/01/21 04:13:10;;;;;;;9.07;5.60;;;;;;;;;;5061544;28;20443;-76
2024/01/21 04:15:36;;;;;;;10.10;5.55;;;;;;;;;;5076533;28;20052;-76
2024/01/21 04:18:03;;;;;;;9.38;5.68;;;;;;;;;;5083246;28;20094;-76
2024/01/21 04:20:29;;;;;;;8.68;5.10;;;;;;;;;;5057679;28;20036;-76
2024/01/21 04:22:55;;;;;;;9.52;5.10;;;;;;;;;;5057634;28;20075;-76
2024/01/21 04:25:21;;;;;;;7.53;5.00;;;;;;;;;;5074471;28;20040;-76
2024/01/21 04:27:47;;;;;;;8.32;4.55;;;;;;;;;;5087066;28;20048;-76
2024/01/21 04:30:13;;;;;;;9.38;5.20;;;;;;;;;;5064781;28;20032;-76
2024/01/21 04:32:39;;;;;;;9.40;5.40;;;;;;;;;;5073437;28;20537;-76
2024/01/21 04:35:06;;;;;;;7.47;4.40;;;;;;;;;;5099479;28;20412;-76
2024/01/21 04:37:32;;;;;;;7.63;4.90;;;;;;;;;;5070698;28;20372;-76
2024/01/21 04:39:58;;;;;;;8.00;5.15;;;;;;;;;;5082125;28;20152;-76
2024/01/21 04:42:25;;;;;;;9.05;5.18;;;;;;;;;;5091205;28;20506;-76
2024/01/21 04:44:52;;;;;;;7.95;4.32;;;;;;;;;;5080577;28;20037;-76
2024/01/21 04:47:18;;;;;;;8.15;4.95;;;;;;;;;;5057198;28;20047;-76
2024/01/21 04:49:44;;;;;;;11.35;4.85;;;;;;;;;;5066031;28;20151;-77
2024/01/21 04:52:10;;;;;;;9.60;5.10;;;;;;;;;;5087047;28;20032;-76
2024/01/21 04:54:36;;;;;;;9.23;4.45;;;;;;;;;;5084011;28;20039;-76
2024/01/21 04:57:02;;;;;;;7.43;4.47;;;;;;;;;;5085509;28;20075;-76
2024/01/21 04:59:28;;;;;;;9.32;4.45;;;;;;;;;;5079802;28;20040;-76
2024/01/21 05:01:54;;;;;;;6.88;4.03;;;;;;;;;;5091824;28;20043;-76
2024/01/21 05:04:20;;;;;;;8.13;4.40;;;;;;;;;;5084535;28;20047;-76
2024/01/21 05:06:46;;;;;;;7.93;4.38;;;;;;;;;;5081328;28;20040;-76
2024/01/21 05:09:12;;;;;;;7.05;3.92;;;;;;;;;;5065038;28;20040;-76
2024/01/21 05:11:38;;;;;;;8.75;4.15;;;;;;;;;;5065474;28;20396;-76
2024/01/21 05:14:05;;;;;;;8.02;4.45;;;;;;;;;;5083322;28;20484;-76
2024/01/21 05:16:31;;;;;;;7.70;4.25;;;;;;;;;;5069676;28;20437;-76
2024/01/21 05:18:57;;;;;;;6.20;3.72;;;;;;;;;;5073446;28;20058;-77
2024/01/21 05:21:23;;;;;;;6.90;4.07;;;;;;;;;;5064790;28;20043;-77
2024/01/21 05:23:52;;;;;;;6.45;3.70;;;1.40;99.90;;;;;;5089579;28;20046;-77
2024/01/21 05:26:18;;;;;;;6.43;4.18;;;;;;;;;;5079983;28;20044;-76
2024/01/21 05:28:45;;;;;;;7.32;4.13;;;;;;;;;;5080573;28;20589;-76
2024/01/21 05:31:11;;;;;;;7.60;3.88;;;;;;;;;;5075788;28;20041;-77
2024/01/21 05:33:38;;;;;;;7.57;4.18;;;;;;;;;;5057254;28;20029;-76
2024/01/21 05:36:05;;;;;;;7.53;4.40;;;;;;;;;;5075596;28;20115;-76
2024/01/21 05:38:31;;;;;;;6.63;4.30;;;;;;;;;;5078914;28;20515;-76
2024/01/21 05:40:57;;;;;;;10.43;4.35;;;;;;;;;;5085934;28;20044;-77
2024/01/21 05:43:23;;;;;;;5.80;3.50;;;;;;;;;;5059957;28;20037;-77
2024/01/21 05:45:49;;;;;;;7.78;4.03;;;;;;;;;;5056699;28;20028;-77
2024/01/21 05:48:15;;;;;;;6.05;3.95;;;;;;;;;;5067339;28;20048;-76
2024/01/21 05:50:41;;;;;;;6.95;4.20;;;;;;;;;;5063659;28;20081;-77
2024/01/21 05:53:08;;;;;;;10.73;4.88;;;;;;;;;;5074035;28;20071;-76
2024/01/21 05:55:34;;;;;;;6.72;4.20;;;;;;;;;;5085198;28;20491;-77
2024/01/21 05:58:00;;;;;;;8.00;4.57;;;;;;;;;;5079433;28;20093;-73
2024/01/21 06:00:26;;;;;;;7.22;4.20;;;;;;;;;;5073237;28;20047;-73
2024/01/21 06:02:52;;;;;;;7.75;4.53;;;;;;;;;;5083014;28;20138;-73
2024/01/21 06:05:20;;;;;;;9.02;4.40;;;;;;;;;;5077305;28;20178;-73
2024/01/21 06:07:46;;;;;;;8.73;4.75;;;;;;;;;;5062461;28;20048;-73
2024/01/21 06:10:12;;;;;;;6.80;4.05;;;;;;;;;;5081845;28;20506;-72
2024/01/21 06:12:38;;;;;;;7.00;4.00;;;;;;;;;;5059657;28;20126;-73
2024/01/21 06:15:05;;;;;;;8.05;4.30;;;;;;;;;;5085325;28;20068;-72
2024/01/21 06:17:31;;;;;;;7.93;4.28;;;;;;;;;;5074221;28;20043;-73
2024/01/21 06:19:57;;;;;;;7.60;4.03;;;;;;;;;;5039911;28;20127;-73
2024/01/21 06:22:23;;;;;;;6.93;4.43;;;;;;;;;;5083671;28;20415;-73
2024/01/21 06:24:49;;;;;;;7.50;4.18;;;;;;;;;;5079721;28;20039;-73
2024/01/21 06:27:15;;;;;;;7.38;4.47;;;;;;;;;;5063596;28;20037;-73
2024/01/21 06:29:44;;;;;;;8.57;4.60;;;;;;;;;;5073633;28;20546;-73
2024/01/21 06:32:11;;;;;;;8.13;4.60;;;;;;;;;;5076845;28;20119;-73
2024/01/21 06:34:37;;;;;;;8.15;4.13;;;;;;;;;;5087169;28;20044;-73
2024/01/21 06:37:03;;;;;;;7.90;4.15;;;;;;;;;;5072637;28;20032;-73
2024/01/21 06:39:29;;;;;;;9.88;4.63;;;;;;;;;;5080786;28;20458;-72
2024/01/21 06:41:55;;;;;;;8.05;4.50;;;;;;;;;;5087198;28;20480;-72
2024/01/21 06:44:21;;;;;;;7.25;4.57;;;;;;;;;;5081016;28;20051;-72
2024/01/21 06:46:47;;;;;;;8.13;4.93;;;;;;;;;;5072060;28;20044;-77
2024/01/21 06:49:13;;;;;;;14.70;4.40;;;;;;;;;;5079381;28;20181;-76
2024/01/21 06:51:54;;;;;;;7.57;4.53;;;;;;;;;;5075565;28;20044;-76
2024/01/21 06:54:21;;;;;;;11.05;4.78;;;;;;;;;;5054358;28;20044;-78
2024/01/21 06:56:47;;;;;;;9.02;4.97;;;;;;;;;;5073244;28;20093;-72
2024/01/21 06:59:14;;;;;;;9.60;5.35;;;;;;;;;;5080979;28;20037;-72
2024/01/21 07:01:40;;;;;;;6.72;4.25;;;;;;;;;;5083395;28;20140;-72
2024/01/21 07:04:06;;;;;;;9.40;5.10;;;;;;;;;;5061945;28;20044;-73
2024/01/21 07:06:32;;;;;;;11.48;4.38;;;;;;;;;;5073165;28;20044;-73
2024/01/21 07:08:58;;;;;;;8.82;4.88;;;;;;;;;;5059983;28;20129;-72
2024/01/21 07:11:25;;;;;;;9.40;5.57;;;;;;;;;;5073555;28;20090;-75
2024/01/21 07:13:51;;;;;;;12.40;5.80;;;;;;;;;;5084046;28;20048;-75
2024/01/21 07:16:17;;;;;;;10.30;5.55;;;;;;;;;;5093020;28;20048;-75
2024/01/21 07:18:43;;;;;;;7.70;4.78;;;;;;;;;;5085630;28;20044;-72
2024/01/21 07:21:09;;;;;;;8.43;5.22;;;;;;;;;;5090403;28;20112;-72
2024/01/21 07:23:38;;;;;;;12.25;4.97;;;;;;;;;;5102761;28;20052;-72
2024/01/21 07:26:04;;;;;;;8.32;4.50;;;;;;;;;;5092929;28;20530;-72
2024/01/21 07:28:30;;;;;;;10.43;5.45;;;;;;;;;;5089037;28;20036;-72
2024/01/21 07:30:56;;;;;;;8.07;5.05;;;;;;;;;;5083134;28;20037;-71
2024/01/21 07:33:22;;;;;;;9.45;5.22;;;;;;;;;;5084032;28;20127;-71
2024/01/21 07:35:50;;;;;;;9.60;5.57;;;;;;;;;;5080780;28;20117;-72
2024/01/21 07:38:17;;;;;;;9.60;5.53;;;;;;;;;;5075389;28;20432;-72
2024/01/21 07:40:43;;;;;;;10.70;5.70;;;;;;;;;;5063217;28;20135;-71
2024/01/21 07:43:10;;;;;;;8.65;5.35;;;;;;;;;;5081026;28;20047;-72
2024/01/21 07:45:36;;;;;;;10.30;5.15;;;;;;;;;;5063113;28;20397;-72
2024/01/21 07:48:03;;;;;;;8.38;5.55;;;;;;;;;;5061630;28;20040;-72
2024/01/21 07:50:29;;;;;;;12.13;6.00;;;;;;;;;;5079294;28;20040;-71
2024/01/21 07:52:55;;;;;;;9.35;5.10;;;;;;;;;;5074530;28;20036;-72
2024/01/21 07:55:21;;;;;;;9.00;5.20;;;;;;;;;;5075174;28;20135;-72
2024/01/21 07:57:47;;;;;;;10.00;5.25;;;;;;;;;;5041595;28;20051;-72
2024/01/21 08:00:15;;;;;;;10.18;5.47;;;;;;;;;;5058347;28;20397;-72
2024/01/21 08:02:41;;;;;;;12.70;5.30;;;;;;;;;;5074623;28;20076;-71
2024/01/21 08:05:08;;;;;;;8.55;5.18;;;;;;;;;;5074570;28;20093;-71
2024/01/21 08:07:34;;;;;;;12.60;5.85;;;;;;;;;;5058238;28;20048;-71
2024/01/21 08:10:01;;;;;;;9.35;5.82;;;;;;;;;;5074478;28;20477;-72
2024/01/21 08:12:27;;;;;;;9.43;5.75;;;;;;;;;;5074287;28;20032;-71
2024/01/21 08:14:53;;;;;;;12.70;5.82;;;;;;;;;;5074287;28;20044;-72
2024/01/21 08:17:20;;;;;;;11.63;6.07;;;;;;;;;;5074454;28;20110;-72
2024/01/21 08:19:46;;;;;;;9.15;5.57;;;;;;;;;;5057782;28;20037;-71
2024/01/21 08:22:12;;;;;;;14.10;6.05;;;;;;;;;;5074585;28;20127;-74
2024/01/21 08:24:38;;;;;;;9.43;5.82;;;;;;;;;;5074420;28;20082;-74
2024/01/21 08:27:04;;;;;;;10.10;5.90;;;;;;;;;;5057572;28;20036;-75
2024/01/21 08:29:31;;;;;;;12.75;6.18;;;;;;;;;;5074537;28;20431;-75
2024/01/21 08:31:59;;;;;;;12.48;6.63;;;;;;;;;;5057643;28;20032;-75
2024/01/21 08:34:25;;;;;;;8.60;5.60;;;;;;;;;;5056896;28;20052;-75
2024/01/21 08:36:51;;;;;;;11.77;5.85;;;;;;;;;;5073939;28;20041;-75
2024/01/21 08:39:17;;;;;;;13.82;6.72;;;;;;;;;;5074196;28;20063;-75
2024/01/21 08:41:43;;;;;;;11.23;6.00;;;;;;;;;;5074444;28;20075;-75
2024/01/21 08:44:09;;;;;;;9.95;5.80;;;;;;;;;;5078415;28;20047;-75
2024/01/21 08:46:35;;;;;;;10.43;6.20;;;;;;;;;;5077648;28;20040;-75
2024/01/21 08:49:02;;;;;;;9.98;5.75;;;;;;;;;;5056993;28;20055;-75
2024/01/21 08:51:29;;;;;;;12.52;6.10;;;;;;;;;;5083452;28;20036;-75
2024/01/21 08:53:57;;;;;;;10.38;5.95;;;;;;;;;;5076577;28;20180;-75
2024/01/21 08:56:27;;;;;;;10.50;5.90;;;;;;;;;;5068518;28;20546;-75
2024/01/21 08:58:54;;;;;;;9.55;5.68;;;;;;;;;;5078012;28;20036;-75
2024/01/21 09:01:20;;;;;;;13.15;6.45;;;;;;;;;;5057505;28;20552;-74
2024/01/21 09:03:46;;;;;;;11.48;6.40;;;;;;;;;;5079586;28;20515;-75
2024/01/21 09:06:13;;;;;;;8.80;5.60;;;;;;;;;;5075789;28;20119;-75
2024/01/21 09:08:39;;;;;;;10.80;6.25;;;;;;;;;;5073486;28;20044;-74
2024/01/21 09:11:05;;;;;;;10.25;6.30;;;;;;;;;;5058727;28;20393;-75
2024/01/21 09:13:31;;;;;;;11.13;6.40;;;;;;;;;;5093796;28;20566;-75
2024/01/21 09:15:57;;;;;;;10.43;5.93;;;;;;;;;;5072604;28;20057;-75
2024/01/21 09:18:24;;;;;;;10.85;6.30;;;;;;;;;;5093667;28;20036;-75
2024/01/21 09:20:50;;;;;;;13.10;5.97;;;;;;;;;;5073274;28;20043;-75
2024/01/21 09:23:16;;;;;;;12.73;6.18;;;;;;;;;;5072778;28;20048;-75
2024/01/21 09:25:42;;;;;;;11.82;6.45;;;;;;;;;;5073638;28;20033;-75
2024/01/21 09:28:08;;;;;;;10.00;6.20;;;;;;;;;;5075389;28;20060;-75
2024/01/21 09:30:34;;;;;;;10.57;6.35;;;;;;;;;;5056565;28;20481;-75
2024/01/21 09:33:01;;;;;;;11.02;6.20;;;;;;;;;;5057507;28;20362;-75
2024/01/21 09:35:27;;;;;;;11.07;5.95;;;;;;;;;;5074829;28;20079;-75
2024/01/21 09:37:53;;;;;;;11.68;5.95;;;;;;;;;;5072931;28;20041;-75
2024/01/21 09:40:19;;;;;;;10.85;6.28;;;;;;;;;;5073776;28;20124;-75
2024/01/21 09:42:46;;;;;;;13.73;6.82;;;;;;;;;;5072388;28;20082;-74
2024/01/21 09:45:12;;;;;;;10.40;6.15;;;;;;;;;;5071826;28;20040;-75
2024/01/21 09:47:38;;;;;;;9.77;5.93;;;;;;;;;;5072890;28;20456;-75
2024/01/21 09:50:08;;;;;;;11.27;6.35;;;;;;;;;;5057349;28;20538;-75
2024/01/21 09:52:34;;;;;;;9.68;5.95;;;;;;;;;;5072584;28;20047;-75
2024/01/21 09:55:00;;;;;;;14.48;6.95;;;;;;;;;;5063051;28;20044;-74
2024/01/21 09:57:27;;;;;;;13.70;7.18;;;;;;;;;;5074925;28;20124;-75
2024/01/21 09:59:55;;;;;;;12.88;6.50;;;;;;;;;;5071929;28;20542;-75
2024/01/21 10:02:21;;;;;;;11.85;6.22;;;;;;;;;;5073668;28;20067;-75
2024/01/21 10:04:47;;;;;;;12.00;6.63;;;;;;;;;;5073955;28;20041;-74
2024/01/21 10:07:13;;;;;;;12.73;6.75;;;;;;;;;;5073774;28;20067;-75
2024/01/21 10:09:40;;;;;;;11.38;7.07;;;;;;;;;;5068500;28;20074;-75
2024/01/21 10:12:07;;;;;;;13.10;6.70;;;;;;;;;;5073946;28;20484;-74
2024/01/21 10:14:33;;;;;;;11.10;6.35;;;;;;;;;;5072072;28;20071;-71
2024/01/21 10:17:00;;;;;;;11.10;6.60;;;;;;;;;;5068643;28;20058;-71
2024/01/21 10:19:27;;;;;;;13.50;7.43;;;;;;;;;;5071595;28;20090;-71
2024/01/21 10:22:16;;;;;;;13.13;7.28;;;;;;;;;;5059208;28;20465;-70
2024/01/21 10:24:46;;;;;;;12.80;6.75;;;;;;;;;;5062048;28;20063;-71
2024/01/21 10:27:13;;;;;;;10.95;6.95;;;;;;;;;;5080662;28;20039;-71
2024/01/21 10:29:43;;;;;;;12.30;6.72;;;;;;;;;;5078679;28;20028;-71
2024/01/21 10:32:09;;;;;;;14.40;6.75;;;;;;;;;;5084315;28;20032;-71
2024/01/21 10:34:43;;;;;;;10.43;6.53;;;;;;;;;;5080134;28;20041;-71
2024/01/21 10:37:09;;;;;;;13.57;6.55;;;;;;;;;;5077242;28;20041;-71
2024/01/21 10:39:38;;;;;;;12.30;7.10;;;;;;;;;;5074152;28;20098;-71
2024/01/21 10:42:08;;;;;;;13.05;7.18;;;;;;;;;;5076316;28;20495;-71
2024/01/21 10:44:36;;;;;;;12.02;7.00;;;;;;;;;;5079027;28;20063;-71
2024/01/21 10:47:02;;;;;;;13.27;7.07;;;;;;;;;;5074563;28;20500;-74
2024/01/21 10:49:31;;;;;;;11.45;6.57;;;;;;;;;;5071816;28;20040;-74
2024/01/21 10:51:57;;;;;;;12.20;7.13;;;;;;;;;;5089055;28;20044;-74
2024/01/21 10:54:25;;;;;;;13.07;7.32;;;;;;;;;;5074104;28;20083;-74
2024/01/21 10:56:51;;;;;;;10.32;7.20;;;;;;;;;;5078020;28;20048;-73
2024/01/21 10:59:17;;;;;;;11.00;6.93;;;;;;;;;;5061587;28;20488;-73
2024/01/21 11:01:44;;;;;;;12.77;7.75;;;;;;;;;;5072411;28;20128;-74
2024/01/21 11:04:14;;;;;;;14.05;7.30;;;;;;;;;;5076060;28;20062;-74
2024/01/21 11:06:51;;;;;;;13.68;7.57;;;;;;;;;;5054391;28;20028;-73
2024/01/21 11:09:21;;;;;;;12.05;7.18;;;;;;;;;;5076954;28;20123;-73
2024/01/21 11:11:48;;;;;;;11.50;7.07;;;;;;;;;;5073619;28;20063;-74
2024/01/21 11:14:34;;;;;;;13.10;7.22;;;;;;;;;;5077659;28;20046;-73
2024/01/21 11:17:03;;;;;;;11.02;7.38;;;3.10;99.90;;;;;;5077091;28;20037;-74
2024/01/21 11:19:38;;;;;;;11.05;6.75;;;3.30;99.90;;;;;;5073065;28;20085;-74
2024/01/21 11:22:04;;;;;;;14.27;7.43;;;;;;;;;;5076535;28;20048;-73
2024/01/21 11:24:31;;;;;;;13.73;6.88;;;;;;;;;;5072880;28;20045;-74
2024/01/21 11:27:01;;;;;;;15.02;7.88;;;;;;;;;;5078454;28;20089;-73
2024/01/21 11:29:31;;;;;;;15.25;7.97;;;;;;;;;;5073850;28;20036;-73
2024/01/21 11:32:05;;;;;;;12.38;7.53;;;3.00;99.90;;;;;;5076904;28;20039;-74
2024/01/21 11:34:39;;;;;;;14.20;7.50;;;3.10;99.90;;;;;;5074575;28;20036;-74
2024/01/21 11:37:06;;;;;;;13.27;7.57;;;;;;;;;;5082685;28;20094;-73
2024/01/21 11:39:32;;;;;;;13.20;7.25;;;;;;;;;;5071759;28;20044;-74
2024/01/21 11:41:58;;;;;;;13.55;8.00;;;;;;;;;;5064781;28;20512;-74
2024/01/21 11:44:25;;;;;;;12.60;7.60;;;;;;;;;;5077631;28;20040;-74
2024/01/21 11:46:53;;;;;;;14.85;7.95;;;;;;;;;;5056613;28;20059;-75
2024/01/21 11:49:20;;;;;;;14.13;8.68;;;3.20;99.90;;;;;;5075112;28;20043;-74
2024/01/21 11:51:46;;;;;;;19.27;8.20;;;;;;;;;;5076757;28;20143;-75
2024/01/21 11:54:13;;;;;;;13.32;7.80;;;;;;;;;;5078244;28;20497;-74
2024/01/21 11:56:40;;;;;;;17.33;8.23;;;;;;;;;;5089582;28;20084;-75
2024/01/21 11:59:07;;;;;;;18.35;8.70;;;;;;;;;;5069997;28;20056;-74
2024/01/21 12:01:33;;;;;;;16.67;8.93;;;3.30;99.90;;;;;;5089565;28;20078;-74
2024/01/21 12:04:03;;;;;;;17.60;8.73;;;;;;;;;;5088699;28;20070;-75
2024/01/21 12:06:39;;;;;;;18.90;9.25;;;;;;;;;;5088286;28;20443;-75
2024/01/21 12:09:06;;;;;;;16.58;9.07;;;;;;;;;;5072729;28;20051;-75
2024/01/21 12:11:35;;;;;;;16.75;8.30;;;;;;;;;;5079759;28;20043;-75
2024/01/21 12:14:01;;;;;;;21.23;9.90;;;;;;;;;;5060865;28;20049;-75
2024/01/21 12:16:28;;;;;;;14.95;8.73;;;;;;;;;;5071845;28;20361;-71
2024/01/21 12:18:54;;;;;;;19.88;8.68;;;;;;;;;;5075886;28;20040;-70
2024/01/21 12:21:24;;;;;;;22.38;9.13;;;;;;;;;;5081086;28;20040;-71
2024/01/21 12:23:54;;;;;;;16.52;8.90;;;;;;;;;;5078349;28;20378;-70
2024/01/21 12:26:21;;;;;;;16.52;9.63;;;;;;;;;;5070958;28;20033;-70
2024/01/21 12:28:57;;;;;;;15.98;9.00;;;3.70;99.90;;;;;;5083124;28;20040;-70
2024/01/21 12:31:30;;;;;;;20.33;9.00;;;;;;;;;;5068444;28;20032;-71
2024/01/21 12:33:56;;;;;;;18.92;9.43;;;;;;;;;;5085547;28;20393;-71
2024/01/21 12:36:23;;;;;;;14.27;9.18;;;;;;;;;;5078734;28;20118;-70
2024/01/21 12:38:52;;;;;;;17.20;8.98;;;;;;;;;;5093209;28;20044;-70
2024/01/21 12:41:19;;;;;;;18.23;9.43;;;;;;;;;;5088181;28;20036;-70
2024/01/21 12:43:47;;;;;;;15.02;9.32;;;;;;;;;;5065998;28;20032;-70
2024/01/21 12:46:13;;;;;;;20.55;9.32;;;;;;;;;;5080401;28;20048;-70
2024/01/21 12:48:39;;;;;;;18.35;8.95;;;;;;;;;;5071473;28;20031;-70
2024/01/21 12:51:05;;;;;;;17.77;9.35;;;;;;;;;;5074160;28;20033;-70
2024/01/21 12:53:31;;;;;;;15.25;9.10;;;;;;;;;;5058128;28;20040;-70
2024/01/21 12:55:57;;;;;;;21.73;9.35;;;;;;;;;;5092327;28;20040;-70
2024/01/21 12:58:23;;;;;;;18.50;9.98;;;;;;;;;;5074067;28;20036;-70
2024/01/21 13:00:50;;;;;;;15.57;9.45;;;;;;;;;;5058504;28;20044;-70
2024/01/21 13:03:16;;;;;;;16.52;8.95;;;;;;;;;;5075090;28;20056;-70
2024/01/21 13:05:42;;;;;;;17.05;9.27;;;;;;;;;;5075989;28;20063;-70
2024/01/21 13:08:11;;;;;;;20.08;9.75;;;;;;;;;;5059265;28;20374;-70
2024/01/21 13:10:37;;;;;;;15.93;9.02;;;;;;;;;;5056933;28;20051;-74
2024/01/21 13:13:04;;;;;;;18.20;9.82;;;;;;;;;;5074072;28;20080;-74
2024/01/21 13:15:30;;;;;;;16.98;9.43;;;;;;;;;;5090651;28;20048;-75
2024/01/21 13:17:56;;;;;;;17.67;8.65;;;;;;;;;;5079454;28;20071;-75
2024/01/21 13:20:22;;;;;;;20.77;9.48;;;;;;;;;;5073961;28;20041;-74
2024/01/21 13:22:48;;;;;;;20.75;10.18;;;;;;;;;;5064219;28;20168;-70
2024/01/21 13:25:17;;;;;;;18.30;8.77;;;;;;;;;;5060265;28;20041;-71
2024/01/21 13:27:44;;;;;;;15.15;9.05;;;;;;;;;;5073985;28;20050;-70
2024/01/21 13:32:55;;;;;;;16.00;9.23;;;;;;;;;;5073562;28;20159;-74
2024/01/21 13:35:21;;;;;;;18.00;9.65;;;;;;;;;;5090306;28;20028;-74
2024/01/21 13:37:48;;;;;;;18.48;9.68;;;;;;;;;;5077374;28;20452;-74
2024/01/21 13:40:16;;;;;;;15.45;8.73;;;;;;;;;;5082339;28;20389;-74
2024/01/21 13:42:42;;;;;;;15.30;9.15;;;;;;;;;;5094098;28;20124;-74
2024/01/21 13:45:09;;;;;;;19.13;9.00;;;;;;;;;;5101071;28;20480;-74
2024/01/21 13:47:35;;;;;;;17.15;9.10;;;;;;;;;;5094290;28;20025;-75
2024/01/21 13:50:01;;;;;;;16.88;8.95;;;;;;;;;;5075792;28;20044;-75
2024/01/21 13:52:27;;;;;;;20.73;10.05;;;;;;;;;;5100405;28;20040;-74
2024/01/21 13:54:55;;;;;;;20.95;9.50;;;;;;;;;;5103997;28;20066;-74
2024/01/21 13:57:21;;;;;;;19.65;9.30;;;;;;;;;;5092494;28;20036;-70
2024/01/21 13:59:47;;;;;;;15.90;9.73;;;;;;;;;;5078533;28;20040;-70
2024/01/21 14:02:13;;;;;;;18.05;9.80;;;;;;;;;;5094377;28;20043;-71
2024/01/21 14:04:39;;;;;;;18.52;8.77;;;;;;;;;;5059170;28;20064;-75
2024/01/21 14:07:05;;;;;;;17.77;9.93;;;;;;;;;;5072616;28;20583;-75
2024/01/21 14:09:31;;;;;;;17.15;9.20;;;;;;;;;;5056135;28;20106;-74
2024/01/21 14:11:57;;;;;;;16.20;8.95;;;;;;;;;;5072461;28;20089;-75
2024/01/21 14:14:24;;;;;;;20.17;9.73;;;;;;;;;;5085638;28;20070;-74
2024/01/21 14:16:50;;;;;;;18.42;9.07;;;;;;;;;;5058126;28;20050;-75
2024/01/21 14:19:16;;;;;;;13.23;8.15;;;;;;;;;;5071955;28;20562;-74
2024/01/21 14:21:42;;;;;;;20.67;9.20;;;;;;;;;;5072085;28;20048;-75
2024/01/21 14:24:08;;;;;;;18.55;9.05;;;;;;;;;;5078075;28;20532;-75
2024/01/21 14:26:40;;;;;;;20.80;9.68;;;;;;;;;;5077313;28;20040;-75
2024/01/21 14:29:29;;;;;;;17.80;9.65;;;4.20;99.90;;;;;;5070402;28;20045;-75
2024/01/21 14:31:55;;;;;;;24.85;9.82;;;;;;;;;;5071839;28;20051;-74